Time;durP1;ratioP1;P1;durP2;ratioP2;P2;SDS_P1;SDS_P2;PMS_P1;PMS_P2;Temp;Humidity;BMP_temperature;BMP_pressure;BME280_temperature;BME280_humidity;BME280_pressure;Samples;Min_cycle;Max_cycle;Signal;HPM_P1;HPM_P2
2022/01/13 00:01:00;;;;;;;0.38;0.38;;;;;;;6.50;92.25;101254.56;5063869;28;20048;-68
2022/01/13 00:03:25;;;;;;;0.52;0.52;;;;;;;6.52;92.12;101252.88;5063563;28;20024;-68
2022/01/13 00:05:50;;;;;;;0.40;0.40;;;;;;;6.47;92.33;101244.19;5063667;28;20074;-69
2022/01/13 00:08:16;;;;;;;0.40;0.40;;;;;;;6.52;91.84;101256.31;5063704;28;20025;-68
2022/01/13 00:10:41;;;;;;;0.50;0.50;;;;;;;6.52;92.28;101250.28;5063463;28;20029;-68
2022/01/13 00:13:09;;;;;;;0.60;0.60;;;;;;;6.52;92.49;101247.72;5045589;28;20023;-68
2022/01/13 00:18:39;;;;;;;0.40;0.40;;;;;;;6.54;92.08;101221.13;4981557;28;20038;-68
2022/01/13 00:26:09;;;;;;;0.30;0.30;;;;;;;6.55;92.18;101228.00;4981785;28;20039;-69
2022/01/13 00:28:34;;;;;;;0.40;0.40;;;;;;;6.54;92.12;101226.28;4981878;28;20359;-68
2022/01/13 00:31:04;;;;;;;0.40;0.40;;;;;;;6.57;92.31;101230.63;4982112;28;20295;-69
2022/01/13 00:33:29;;;;;;;0.40;0.40;;;;;;;6.60;92.26;101227.25;4981677;28;20051;-68
2022/01/13 00:35:58;;;;;;;0.40;0.40;;;;;;;6.55;92.55;101242.66;4965619;28;20122;-68
2022/01/13 00:38:25;;;;;;;0.82;0.82;;;;;;;6.51;92.50;101245.97;4981932;28;20026;-68
2022/01/13 00:40:53;;;;;;;0.95;0.93;;;;;;;6.44;92.39;101234.66;4965463;28;20023;-67
2022/01/13 00:43:19;;;;;;;0.70;0.70;;;;;;;6.44;92.24;101227.78;4981967;28;20046;-68
2022/01/13 00:45:46;;;;;;;0.52;0.52;;;;;;;6.39;92.18;101215.66;4985706;28;20469;-68
2022/01/13 00:48:12;;;;;;;0.40;0.40;;;;;;;6.41;92.37;101222.56;4988265;28;20069;-69
2022/01/13 00:50:37;;;;;;;0.40;0.40;;;;;;;6.36;92.38;101203.53;4988173;28;20030;-67
2022/01/13 00:53:03;;;;;;;2.67;2.45;;;;;;;6.46;92.64;101217.50;4988112;28;20030;-69
2022/01/13 00:55:44;;;;;;;0.40;0.40;;;;;;;6.45;92.32;101205.47;5030727;28;20041;-69
2022/01/13 00:58:10;;;;;;;0.40;0.40;;;;;;;6.42;92.24;101213.97;5052069;28;20043;-69
2022/01/13 01:00:36;;;;;;;0.70;0.70;;;;;;;6.43;92.10;101217.44;5069695;28;20029;-69
2022/01/13 01:03:01;;;;;;;0.40;0.40;;;;;;;6.42;92.24;101216.56;5069569;28;20025;-69
2022/01/13 01:05:27;;;;;;;0.40;0.40;;;;;;;6.43;92.20;101220.91;5069941;28;20020;-69
2022/01/13 01:07:52;;;;;;;2.00;1.27;;;;;;;6.42;92.12;101211.41;5069683;28;20074;-69
2022/01/13 01:10:19;;;;;;;2.28;2.05;;;;;;;6.27;92.04;101198.16;5069613;28;20489;-69
2022/01/13 01:12:44;;;;;;;0.85;0.85;;;;;;;6.42;92.03;101221.72;5069660;28;20021;-68
2022/01/13 01:15:11;;;;;;;2.05;1.85;;;;;;;6.45;92.06;101210.63;5069781;28;20025;-68
2022/01/13 01:17:45;;;;;;;0.40;0.40;;;;;;;6.53;92.11;101239.16;5069709;28;20021;-69
2022/01/13 01:20:11;;;;;;;1.25;1.25;;;;;;;6.53;92.23;101231.41;5069908;28;20021;-69
2022/01/13 01:22:57;;;;;;;0.40;0.40;;;;;;;6.53;91.77;101234.00;5068116;28;20021;-69
2022/01/13 01:27:57;;;;;;;22.45;9.43;;;;;;;6.53;92.17;101252.06;5069765;28;20580;-68
2022/01/13 01:30:31;;;;;;;0.40;0.40;;;;;;;6.53;92.03;101252.06;5069641;28;20084;-68
2022/01/13 01:32:57;;;;;;;0.50;0.50;;;;;;;6.47;92.31;101231.28;5069176;28;20025;-68
2022/01/13 01:35:25;;;;;;;0.40;0.40;;;;;;;6.42;92.08;101224.28;5069158;28;20029;-68
2022/01/13 01:37:52;;;;;;;0.40;0.40;;;;;;;6.50;92.28;101239.94;5051612;28;20040;-69
2022/01/13 01:40:18;;;;;;;0.30;0.30;;;;;;;6.44;92.42;101235.53;5069261;28;20102;-67
2022/01/13 01:42:46;;;;;;;1.00;1.00;;;;;;;6.39;92.45;101237.13;5051349;28;20501;-68
2022/01/13 01:45:11;;;;;;;0.40;0.40;;;;;;;6.35;92.13;101243.06;5069337;28;20021;-68
2022/01/13 01:47:37;;;;;;;0.35;0.35;;;;;;;6.36;92.41;101236.22;5051207;28;20071;-69
2022/01/13 01:50:12;;;;;;;1.48;1.38;;;;;;;6.37;92.47;101218.19;5069165;28;20028;-69
2022/01/13 01:52:39;;;;;;;0.40;0.40;;;;;;;6.39;92.37;101226.81;5069808;28;20020;-69
2022/01/13 01:55:06;;;;;;;0.40;0.40;;;;;;;6.44;93.10;101245.84;5068947;28;20066;-69
2022/01/13 01:57:32;;;;;;;0.40;0.40;;;;;;;6.32;93.15;101212.94;5048011;28;20017;-69
2022/01/13 01:59:58;;;;;;;0.40;0.40;;;;;;;6.43;92.90;101235.50;5065893;28;20036;-69
2022/01/13 02:02:26;;;;;;;0.40;0.40;;;;;;;6.45;93.21;101221.78;5047900;28;20078;-69
2022/01/13 02:04:52;;;;;;;0.93;0.88;;;;;;;6.41;93.13;101201.94;5065931;28;20017;-70
2022/01/13 02:07:18;;;;;;;0.70;0.70;;;;;;;6.53;93.11;101215.94;5066284;28;20043;-69
2022/01/13 02:09:49;;;;;;;0.40;0.40;;;;;;;6.49;92.66;101216.69;5065678;28;20025;-69
2022/01/13 02:12:26;;;;;;;0.75;0.75;;;;;;;6.61;93.05;101234.16;5047854;28;20021;-69
2022/01/13 02:14:59;;;;;;;0.40;0.40;;;;;;;6.62;92.67;101230.72;5047889;28;20027;-69
2022/01/13 02:17:27;;;;;;;0.68;0.68;;;;;;;6.52;92.76;101215.06;5065402;28;20025;-69
2022/01/13 02:19:55;;;;;;;0.43;0.43;;;;;;;6.59;92.82;101215.19;5065586;28;20021;-69
2022/01/13 02:22:22;;;;;;;0.55;0.55;;;;;;;6.45;92.31;101190.81;5065440;28;20033;-69
2022/01/13 02:24:48;;;;;;;0.40;0.40;;;;;;;6.50;92.51;101192.66;5065565;28;20025;-69
2022/01/13 02:27:14;;;;;;;0.40;0.40;;;;;;;6.58;92.27;101211.75;5065304;28;20412;-69
2022/01/13 02:29:39;;;;;;;0.38;0.38;;;;;;;6.53;92.47;101203.03;5064787;28;20032;-69
2022/01/13 02:32:05;;;;;;;0.40;0.40;;;;;;;6.54;92.41;101208.22;5046624;28;20017;-69
2022/01/13 02:34:31;;;;;;;0.40;0.40;;;;;;;6.47;92.23;101187.44;5063979;28;20045;-69
2022/01/13 02:36:58;;;;;;;0.40;0.40;;;;;;;6.48;nan;101197.78;5065092;28;20028;-68
2022/01/13 02:39:27;;;;;;;0.55;0.55;;;;;;;6.39;92.26;101180.38;5065280;28;20025;-69
2022/01/13 02:41:53;;;;;;;0.40;0.40;;;;;;;6.49;91.72;101196.06;5064929;28;20450;-68
2022/01/13 02:44:22;;;;;;;2.47;2.28;;;;;;;6.45;92.21;101170.19;5064967;28;20021;-68
2022/01/13 02:49:18;;;;;;;0.40;0.40;;;;;;;6.45;92.11;101172.78;5065294;28;20025;-68
2022/01/13 02:51:47;;;;;;;0.40;0.40;;;;;;;6.50;91.91;101180.59;5065332;28;20206;-68
2022/01/13 02:54:12;;;;;;;0.40;0.40;;;;;;;6.42;91.85;101157.22;5065064;28;20024;-68
2022/01/13 02:56:39;;;;;;;0.40;0.40;;;;;;;6.52;91.83;101155.72;5064903;28;20044;-69
2022/01/13 02:59:05;;;;;;;1.10;1.10;;;;;;;6.53;91.88;101177.25;5065016;28;20104;-68
2022/01/13 03:01:32;;;;;;;0.40;0.40;;;;;;;6.42;91.70;101158.97;5064682;28;20056;-69
2022/01/13 03:04:00;;;;;;;3.53;3.33;;;;;;;6.44;91.88;101165.88;5046948;28;20048;-68
2022/01/13 03:06:33;;;;;;;0.63;0.63;;;;;;;6.40;91.99;101148.63;5046615;28;20084;-68
2022/01/13 03:08:59;;;;;;;0.40;0.40;;;;;;;6.42;91.71;101152.06;5063312;28;20017;-68
2022/01/13 03:11:31;;;;;;;0.40;0.40;;;;;;;6.45;91.79;101146.97;5046985;28;20025;-69
2022/01/13 03:13:57;;;;;;;0.50;0.50;;;;;;;6.42;92.21;101143.47;5064585;28;20021;-67
2022/01/13 03:16:22;;;;;;;5.05;4.78;;;;;;;6.40;91.96;101132.25;5064301;28;20059;-68
2022/01/13 03:18:48;;;;;;;1.17;1.10;;;;;;;6.39;91.96;101123.63;5064775;28;20021;-68
2022/01/13 03:21:13;;;;;;;24.75;4.43;;;;;;;6.39;91.93;101128.78;5064466;28;20377;-69
2022/01/13 03:23:38;;;;;;;0.40;0.40;;;;;;;6.40;92.14;101133.13;5064525;28;20049;-68
2022/01/13 03:26:05;;;;;;;0.38;0.38;;;;;;;6.34;92.09;101119.22;5063879;28;20021;-68
2022/01/13 03:28:38;;;;;;;1.10;1.10;;;;;;;6.40;92.02;101129.69;5063725;28;20025;-68
2022/01/13 03:31:04;;;;;;;0.38;0.38;;;;;;;6.48;92.27;101138.44;5063991;28;20357;-69
2022/01/13 03:33:30;;;;;;;4.53;2.78;;;;;;;6.39;92.21;101117.63;5063925;28;20045;-69
2022/01/13 03:35:57;;;;;;;0.40;0.40;;;;;;;6.46;92.28;101147.84;5046150;28;20063;-69
2022/01/13 03:38:22;;;;;;;0.40;0.40;;;;;;;6.40;92.32;101134.84;5064457;28;20497;-69
2022/01/13 03:40:48;;;;;;;0.40;0.40;;;;;;;6.51;92.40;101154.00;5064064;28;20039;-70
2022/01/13 03:43:16;;;;;;;0.40;0.40;;;;;;;6.38;91.89;101142.53;5064081;28;20244;-69
2022/01/13 03:45:42;;;;;;;2.72;2.63;;;;;;;6.47;91.94;101152.16;5064024;28;20036;-70
2022/01/13 03:48:09;;;;;;;0.40;0.40;;;;;;;6.52;91.93;101149.69;5064022;28;20072;-69
2022/01/13 03:50:34;;;;;;;0.40;0.40;;;;;;;6.40;91.83;101130.56;5063836;28;20032;-70
2022/01/13 03:53:02;;;;;;;0.45;0.45;;;;;;;6.52;91.84;101163.47;5064056;28;20013;-69
2022/01/13 03:55:34;;;;;;;1.15;1.15;;;;;;;6.56;91.79;101160.13;5063644;28;20025;-69
2022/01/13 03:58:02;;;;;;;0.93;0.93;;;;;;;6.55;92.16;101165.25;5063708;28;20085;-70
2022/01/13 04:00:57;;;;;;;0.40;0.40;;;;;;;6.50;91.87;101151.38;5063812;28;20085;-70
2022/01/13 04:03:22;;;;;;;0.40;0.40;;;;;;;6.57;92.04;101168.72;5063703;28;20120;-69
2022/01/13 04:06:27;;;;;;;0.40;0.40;;;;;;;6.42;91.58;101144.34;5045520;28;20028;-70
2022/01/13 04:08:54;;;;;;;0.40;0.40;;;;;;;6.48;91.59;101143.59;5063759;28;20028;-69
2022/01/13 04:11:25;;;;;;;0.40;0.40;;;;;;;6.57;91.78;101166.13;5045908;28;20013;-69
2022/01/13 04:16:19;;;;;;;0.38;0.38;;;;;;;6.50;92.06;101159.13;5063913;28;20021;-69
2022/01/13 04:18:46;;;;;;;0.40;0.40;;;;;;;6.44;91.74;101142.66;5063644;28;20025;-70
2022/01/13 04:21:12;;;;;;;1.20;1.20;;;;;;;6.60;91.78;101168.78;5063290;28;20052;-70
2022/01/13 04:23:38;;;;;;;0.95;0.95;;;;;;;6.59;91.95;101171.31;5063301;28;20456;-71
2022/01/13 04:26:05;;;;;;;0.40;0.40;;;;;;;6.59;91.78;101156.72;5045151;28;20029;-71
2022/01/13 04:28:32;;;;;;;0.70;0.70;;;;;;;6.65;92.21;101169.75;5063400;28;20044;-71
2022/01/13 04:31:00;;;;;;;0.40;0.40;;;;;;;6.67;91.92;101159.44;5063146;28;20027;-70
2022/01/13 04:33:36;;;;;;;0.40;0.40;;;;;;;6.65;91.68;101167.16;5063048;28;20045;-70
2022/01/13 04:36:04;;;;;;;0.50;0.50;;;;;;;6.65;92.04;101166.28;5063193;28;20088;-70
2022/01/13 04:38:29;;;;;;;0.40;0.40;;;;;;;6.57;92.07;101148.06;5063353;28;20048;-71
2022/01/13 04:40:56;;;;;;;0.40;0.40;;;;;;;6.53;91.86;101154.88;5045249;28;20106;-70
2022/01/13 04:43:23;;;;;;;0.40;0.40;;;;;;;6.55;91.87;101149.78;5063187;28;20120;-70
2022/01/13 04:45:49;;;;;;;0.40;0.40;;;;;;;6.58;91.75;101160.16;5063207;28;20184;-70
2022/01/13 04:48:15;;;;;;;0.40;0.40;;;;;;;6.73;91.79;101185.38;5045663;28;20025;-70
2022/01/13 04:50:42;;;;;;;0.40;0.40;;;;;;;6.68;91.92;101181.81;5063123;28;20384;-70
2022/01/13 04:53:08;;;;;;;0.52;0.52;;;;;;;6.66;91.38;101174.06;5045124;28;20017;-71
2022/01/13 04:55:36;;;;;;;0.40;0.40;;;;;;;6.60;91.66;101153.28;5062947;28;20040;-71
2022/01/13 04:58:02;;;;;;;0.30;0.30;;;;;;;6.73;91.59;101174.16;5063096;28;20028;-70
2022/01/13 05:00:32;;;;;;;0.40;0.40;;;;;;;6.71;91.72;101166.41;5063029;28;20021;-70
2022/01/13 05:02:58;;;;;;;0.40;0.40;;;;;;;6.77;91.45;101168.25;5063006;28;20025;-71
2022/01/13 05:05:24;;;;;;;0.60;0.60;;;;;;;6.77;91.61;101186.31;5063404;28;20092;-71
2022/01/13 05:07:50;;;;;;;0.40;0.40;;;;;;;6.74;91.45;101163.03;5062425;28;20070;-70
2022/01/13 05:10:15;;;;;;;0.40;0.40;;;;;;;6.68;90.83;101177.53;5062050;28;20052;-70
2022/01/13 05:12:43;;;;;;;0.40;0.40;;;;;;;6.57;90.88;101137.75;5062292;28;20029;-71
2022/01/13 05:15:18;;;;;;;0.30;0.30;;;;;;;6.72;90.85;101167.28;5062954;28;20301;-71
2022/01/13 05:20:21;;;;;;;0.40;0.40;;;;;;;6.67;90.92;101150.00;5062886;28;20520;-70
2022/01/13 05:22:47;;;;;;;0.77;0.77;;;;;;;6.65;90.66;101148.22;5062692;28;20048;-70
2022/01/13 05:25:14;;;;;;;0.40;0.40;;;;;;;6.53;90.79;101148.84;5062644;28;20102;-70
2022/01/13 05:27:39;;;;;;;1.15;1.15;;;;;;;6.54;90.51;101129.94;5062777;28;20044;-67
2022/01/13 05:30:07;;;;;;;45.92;3.60;;;;;;;6.57;90.54;101153.22;5044579;28;20072;-74
2022/01/13 05:32:32;;;;;;;0.40;0.40;;;;;;;6.49;90.61;101139.28;5064433;28;20028;-72
2022/01/13 05:34:58;;;;;;;0.40;0.40;;;;;;;6.52;90.33;101162.56;5066302;28;20076;-68
2022/01/13 05:37:24;;;;;;;0.40;0.40;;;;;;;6.40;90.65;101151.19;5066369;28;20067;-69
2022/01/13 05:39:49;;;;;;;0.40;0.40;;;;;;;6.50;90.49;101153.97;5065897;28;20021;-68
2022/01/13 05:42:14;;;;;;;0.40;0.40;;;;;;;6.42;90.58;101146.91;5048057;28;20020;-69
2022/01/13 05:44:40;;;;;;;0.40;0.40;;;;;;;6.31;90.29;101138.97;5065762;28;20055;-69
2022/01/13 05:47:07;;;;;;;0.38;0.38;;;;;;;6.31;90.67;101138.09;5047850;28;20131;-71
2022/01/13 05:49:33;;;;;;;0.40;0.40;;;;;;;6.40;90.64;101140.00;5065965;28;20035;-69
2022/01/13 05:51:58;;;;;;;2.97;2.78;;;;;;;6.32;90.55;101147.56;5066010;28;20053;-70
2022/01/13 05:54:23;;;;;;;0.40;0.40;;;;;;;6.29;90.68;101124.31;5047685;28;20021;-70
2022/01/13 05:56:49;;;;;;;1.27;1.20;;;;;;;6.32;91.17;101142.41;5065813;28;20048;-67
2022/01/13 05:59:14;;;;;;;0.40;0.40;;;;;;;6.26;91.09;101142.28;5066136;28;20020;-70
2022/01/13 06:01:42;;;;;;;0.40;0.40;;;;;;;6.30;91.19;101162.13;5047967;28;20021;-68
2022/01/13 06:04:08;;;;;;;0.40;0.40;;;;;;;6.20;91.06;101154.19;5065504;28;20033;-68
2022/01/13 06:06:33;;;;;;;0.55;0.55;;;;;;;6.24;91.55;101169.75;5047646;28;20032;-68
2022/01/13 06:08:59;;;;;;;0.40;0.40;;;;;;;6.25;91.44;101151.72;5047994;28;20017;-68
2022/01/13 06:11:26;;;;;;;1.77;1.67;;;;;;;6.22;91.56;101140.47;5065811;28;20032;-71
2022/01/13 06:13:51;;;;;;;0.40;0.40;;;;;;;6.28;91.46;101156.94;5065759;28;20017;-71
2022/01/13 06:16:17;;;;;;;2.45;2.28;;;;;;;6.25;91.41;101158.56;5065574;28;20543;-70
2022/01/13 06:18:43;;;;;;;0.40;0.40;;;;;;;6.19;91.61;101149.00;5065413;28;20033;-69
2022/01/13 06:21:08;;;;;;;0.40;0.40;;;;;;;6.21;91.48;101165.41;5047133;28;20094;-69
2022/01/13 06:23:33;;;;;;;0.40;0.40;;;;;;;6.31;91.91;101167.31;5065105;28;20137;-70
2022/01/13 06:25:59;;;;;;;0.40;0.40;;;;;;;6.36;91.40;101158.84;5064803;28;20479;-70
2022/01/13 06:28:25;;;;;;;0.40;0.40;;;;;;;6.34;91.74;101155.34;5065458;28;20025;-69
2022/01/13 06:30:50;;;;;;;0.40;0.40;;;;;;;6.33;91.63;101136.41;5065312;28;20020;-69
2022/01/13 06:33:16;;;;;;;0.43;0.43;;;;;;;6.25;91.79;101122.47;5065125;28;20194;-69
2022/01/13 06:35:46;;;;;;;0.70;0.70;;;;;;;6.42;91.65;101149.50;5065325;28;20313;-69
2022/01/13 06:38:11;;;;;;;0.40;0.40;;;;;;;6.34;91.73;101145.03;5065196;28;20025;-68
2022/01/13 06:40:37;;;;;;;0.40;0.40;;;;;;;6.42;91.43;101146.91;5065245;28;20579;-70
2022/01/13 06:43:02;;;;;;;0.40;0.40;;;;;;;6.43;91.65;101156.41;5064943;28;20428;-69
2022/01/13 06:45:28;;;;;;;0.40;0.40;;;;;;;6.30;91.76;101131.19;5047016;28;20021;-69
2022/01/13 06:47:53;;;;;;;0.80;0.65;;;;;;;6.40;91.40;101151.19;5065340;28;20135;-69
2022/01/13 06:50:18;;;;;;;0.40;0.40;;;;;;;6.29;91.63;101139.78;5065117;28;20025;-70
2022/01/13 06:52:44;;;;;;;0.40;0.40;;;;;;;6.32;91.40;101130.41;5065081;28;20100;-71
2022/01/13 06:55:10;;;;;;;1.38;1.38;;;;;;;6.29;91.67;101157.81;5064791;28;20051;-69
2022/01/13 06:57:35;;;;;;;0.32;0.32;;;;;;;6.15;91.57;101149.78;5064867;28;20536;-69
2022/01/13 07:00:01;;;;;;;0.40;0.40;;;;;;;6.24;91.69;101167.16;5064989;28;20029;-69
2022/01/13 07:02:29;;;;;;;0.40;0.40;;;;;;;6.22;91.77;101173.97;5046851;28;20025;-68
2022/01/13 07:04:54;;;;;;;1.05;1.05;;;;;;;6.17;91.66;101155.84;5065019;28;20087;-70
2022/01/13 07:07:20;;;;;;;0.73;0.73;;;;;;;6.25;91.56;101179.22;5064466;28;20469;-70
2022/01/13 07:09:45;;;;;;;1.13;1.13;;;;;;;6.22;91.60;101181.72;5046582;28;20035;-70
2022/01/13 07:12:12;;;;;;;0.60;0.60;;;;;;;6.18;91.53;101188.53;5064921;28;20093;-69
2022/01/13 07:14:37;;;;;;;0.40;0.40;;;;;;;6.09;91.38;101176.28;5064511;28;20021;-68
2022/01/13 07:17:03;;;;;;;0.40;0.40;;;;;;;6.17;91.76;101173.88;5064269;28;20040;-69
2022/01/13 07:19:29;;;;;;;0.40;0.40;;;;;;;6.13;91.95;101178.13;5045861;28;20381;-68
2022/01/13 07:21:54;;;;;;;0.40;0.40;;;;;;;6.17;91.73;101179.91;5063831;28;20025;-70
2022/01/13 07:24:20;;;;;;;0.40;0.40;;;;;;;6.19;91.72;101178.25;5063560;28;20025;-68
2022/01/13 07:26:45;;;;;;;0.40;0.40;;;;;;;6.21;92.09;101183.44;5063150;28;20044;-69
2022/01/13 07:29:11;;;;;;;0.40;0.40;;;;;;;6.16;91.92;101156.69;5062836;28;20094;-70
2022/01/13 07:31:37;;;;;;;0.47;0.47;;;;;;;6.25;92.12;101186.94;5063955;28;20021;-70
2022/01/13 07:34:03;;;;;;;0.40;0.40;;;;;;;6.28;91.97;101198.22;5063647;28;20063;-69
2022/01/13 07:36:29;;;;;;;1.88;1.77;;;;;;;6.30;91.87;101196.53;5045937;28;20443;-70
2022/01/13 07:38:55;;;;;;;0.40;0.40;;;;;;;6.34;92.14;101197.50;5063692;28;20331;-69
2022/01/13 07:41:21;;;;;;;0.40;0.40;;;;;;;6.17;92.27;101173.88;5064305;28;20401;-68
2022/01/13 07:43:53;;;;;;;0.40;0.40;;;;;;;6.23;91.87;101175.75;5064222;28;20052;-69
2022/01/13 07:46:18;;;;;;;0.40;0.40;;;;;;;6.12;91.62;101158.31;5064073;28;20033;-69
2022/01/13 07:48:43;;;;;;;0.40;0.40;;;;;;;6.13;91.38;101144.59;5064327;28;20104;-70
2022/01/13 07:51:09;;;;;;;0.40;0.40;;;;;;;6.24;91.87;101155.16;5064284;28;20472;-70
2022/01/13 07:53:34;;;;;;;0.75;0.75;;;;;;;6.19;91.76;101142.16;5064056;28;20068;-70
2022/01/13 07:56:00;;;;;;;0.50;0.50;;;;;;;6.08;91.98;101143.63;5063269;28;20090;-69
2022/01/13 07:58:25;;;;;;;1.45;1.42;;;;;;;5.89;92.31;101104.53;5063989;28;20051;-70
2022/01/13 08:00:50;;;;;;;0.40;0.40;;;;;;;6.14;92.15;101150.63;5064130;28;20019;-70
2022/01/13 08:03:16;;;;;;;0.40;0.40;;;;;;;6.03;91.97;101138.34;5063844;28;20080;-70
2022/01/13 08:05:41;;;;;;;0.40;0.40;;;;;;;5.99;91.87;101122.78;5063900;28;20025;-70
2022/01/13 08:08:07;;;;;;;0.40;0.40;;;;;;;6.18;92.10;101153.28;5063689;28;20047;-70
2022/01/13 08:10:33;;;;;;;0.40;0.40;;;;;;;6.20;92.03;101161.06;5045824;28;20028;-70
2022/01/13 08:12:58;;;;;;;0.40;0.40;;;;;;;6.18;92.20;101142.13;5064055;28;20021;-70
2022/01/13 08:15:23;;;;;;;0.40;0.40;;;;;;;6.09;92.25;101119.56;5063744;28;20029;-69
2022/01/13 08:20:34;;;;;;;0.40;0.40;;;;;;;6.27;92.20;101144.91;5063789;28;20031;-70
2022/01/13 08:23:00;;;;;;;0.40;0.40;;;;;;;6.27;92.31;101139.75;5045427;28;20025;-70
2022/01/13 08:25:26;;;;;;;0.32;0.32;;;;;;;6.35;92.61;101154.50;5045307;28;20024;-69
2022/01/13 08:27:53;;;;;;;0.85;0.85;;;;;;;6.36;92.26;101139.06;5045503;28;20025;-70
2022/01/13 08:30:19;;;;;;;0.30;0.30;;;;;;;6.40;92.13;101133.13;5063837;28;20045;-70
2022/01/13 08:32:44;;;;;;;0.40;0.40;;;;;;;6.23;92.01;101099.25;5063802;28;20024;-70
2022/01/13 08:35:10;;;;;;;0.40;0.40;;;;;;;6.45;91.36;101134.06;5063277;28;20045;-71
2022/01/13 08:37:35;;;;;;;0.40;0.40;;;;;;;6.46;91.27;101132.38;5063383;28;20032;-71
2022/01/13 08:40:04;;;;;;;1.55;1.45;;;;;;;6.38;91.11;101129.66;5045283;28;20464;-70
2022/01/13 08:42:30;;;;;;;0.40;0.40;;;;;;;6.51;90.94;101142.78;5063198;28;20119;-71
2022/01/13 08:44:55;;;;;;;0.40;0.40;;;;;;;6.50;91.17;101138.47;5045468;28;20050;-69
2022/01/13 08:47:21;;;;;;;4.43;3.90;;;;;;;6.48;90.65;101128.13;5063195;28;20046;-71
2022/01/13 08:49:46;;;;;;;0.40;0.40;;;;;;;6.32;90.47;101112.34;5063423;28;20397;-70
2022/01/13 08:52:12;;;;;;;0.40;0.40;;;;;;;6.40;91.05;101124.53;5063093;28;20017;-69
2022/01/13 08:54:37;;;;;;;0.40;0.40;;;;;;;6.32;90.89;101116.63;5062970;28;20035;-70
2022/01/13 08:57:06;;;;;;;0.40;0.40;;;;;;;6.49;90.80;101142.75;5063189;28;20025;-72
2022/01/13 08:59:31;;;;;;;0.40;0.40;;;;;;;6.59;90.69;101153.25;5063444;28;20028;-71
2022/01/13 09:01:57;;;;;;;0.40;0.40;;;;;;;6.42;90.83;101128.84;5045260;28;20025;-70
2022/01/13 09:04:22;;;;;;;0.40;0.40;;;;;;;6.53;90.49;101147.13;5063286;28;20021;-70
2022/01/13 09:06:47;;;;;;;4.95;1.95;;;;;;;6.56;90.97;101154.97;5047666;28;20021;-70
2022/01/13 09:09:14;;;;;;;0.40;0.40;;;;;;;6.57;90.44;101154.09;5067150;28;20059;-70
2022/01/13 09:11:40;;;;;;;0.50;0.50;;;;;;;6.57;90.89;101148.94;5049063;28;20028;-71
2022/01/13 09:14:06;;;;;;;0.43;0.43;;;;;;;6.59;90.49;101158.41;5067062;28;20100;-70
2022/01/13 09:16:41;;;;;;;0.40;0.40;;;;;;;6.55;90.54;101155.78;5067091;28;20028;-71
2022/01/13 09:19:11;;;;;;;0.40;0.40;;;;;;;6.55;90.58;101149.78;5067017;28;20017;-70
2022/01/13 09:21:39;;;;;;;0.40;0.40;;;;;;;6.61;90.54;101151.59;5067123;28;20031;-70
2022/01/13 09:24:07;;;;;;;0.40;0.40;;;;;;;6.44;90.64;101127.19;5066739;28;20021;-70
2022/01/13 09:26:32;;;;;;;0.40;0.40;;;;;;;6.44;90.64;101132.34;5066641;28;20029;-70
2022/01/13 09:28:57;;;;;;;2.83;2.20;;;;;;;6.56;90.55;101130.84;5067004;28;20029;-70
2022/01/13 09:31:23;;;;;;;54.83;8.88;;;;;;;6.64;90.41;101155.09;5067014;28;20136;-69
2022/01/13 09:33:49;;;;;;;0.68;0.68;;;;;;;6.46;90.20;101134.97;5066752;28;20045;-71
2022/01/13 09:36:15;;;;;;;0.43;0.43;;;;;;;6.54;90.18;101154.06;5066628;28;20348;-70
2022/01/13 09:38:41;;;;;;;0.40;0.40;;;;;;;6.51;90.72;101142.78;5066676;28;20025;-70
2022/01/13 09:41:06;;;;;;;0.40;0.40;;;;;;;6.62;90.49;101174.84;5066670;28;20032;-70
2022/01/13 09:43:32;;;;;;;0.40;0.40;;;;;;;6.62;90.53;101166.22;5066430;28;20029;-70
2022/01/13 09:45:58;;;;;;;2.92;2.75;;;;;;;6.66;90.59;101186.97;5066487;28;20017;-70
2022/01/13 09:48:26;;;;;;;2.63;2.42;;;;;;;6.77;90.22;101205.22;5066414;28;20044;-71
2022/01/13 09:50:51;;;;;;;0.40;0.40;;;;;;;6.67;90.54;101183.56;5066499;28;20024;-71
2022/01/13 09:53:17;;;;;;;0.38;0.38;;;;;;;6.69;90.61;101178.44;5066278;28;20484;-70
2022/01/13 09:55:44;;;;;;;0.40;0.40;;;;;;;6.64;89.92;101165.44;5066174;28;20028;-71
2022/01/13 09:58:11;;;;;;;0.40;0.40;;;;;;;6.66;89.95;101168.03;5066351;28;20035;-71
2022/01/13 10:00:41;;;;;;;0.40;0.40;;;;;;;6.74;90.13;101165.63;5066311;28;20045;-71
2022/01/13 10:03:27;;;;;;;0.40;0.40;;;;;;;6.85;89.96;101178.72;5066146;28;20096;-71
2022/01/13 10:05:59;;;;;;;1.13;1.10;;;;;;;6.89;89.91;101167.59;5066148;28;20028;-70
2022/01/13 10:08:46;;;;;;;3.70;3.50;;;;;;;7.00;89.87;101160.06;5048290;28;20040;-71
2022/01/13 10:11:27;;;;;;;0.40;0.40;;;;;;;6.99;89.40;101155.75;5065831;28;20029;-70
2022/01/13 10:16:52;;;;;;;0.40;0.40;;;;;;;7.07;89.28;101149.03;5065907;28;20040;-71
2022/01/13 10:19:42;;;;;;;0.40;0.40;;;;;;;7.18;88.70;101137.19;5065079;28;20025;-70
2022/01/13 10:22:09;;;;;;;0.40;0.40;;;;;;;7.18;88.68;101138.88;5065766;28;20024;-70
2022/01/13 10:24:37;;;;;;;0.40;0.40;;;;;;;7.08;88.43;101104.28;5047704;28;20412;-72
2022/01/13 10:27:15;;;;;;;0.57;0.57;;;;;;;7.32;88.59;101146.84;5065719;28;20028;-70
2022/01/13 10:29:47;;;;;;;0.73;0.73;;;;;;;7.35;88.83;101149.50;5065884;28;20020;-71
2022/01/13 10:32:37;;;;;;;34.78;2.28;;;;;;;7.41;88.11;101143.56;5065510;28;20029;-70
2022/01/13 10:35:14;;;;;;;0.40;0.40;;;;;;;7.42;88.32;101148.75;5040322;28;20109;-71
2022/01/13 10:37:58;;;;;;;0.40;0.40;;;;;;;7.32;87.63;101113.28;5065490;28;20094;-71
2022/01/13 10:40:29;;;;;;;2.55;2.35;;;;;;;7.24;87.75;101128.66;5065327;28;20081;-70
2022/01/13 10:45:49;;;;;;;0.40;0.40;;;;;;;7.42;86.91;101146.19;5065569;28;20028;-70
2022/01/13 10:48:27;;;;;;;0.40;0.40;;;;;;;7.33;86.91;101133.13;5065203;28;20025;-70
2022/01/13 10:50:52;;;;;;;2.25;2.15;;;;;;;7.36;87.10;101134.88;5047304;28;20036;-71
2022/01/13 10:53:29;;;;;;;0.40;0.40;;;;;;;7.29;86.94;101128.72;5065164;28;20021;-71
2022/01/13 10:56:01;;;;;;;0.40;0.40;;;;;;;7.28;86.54;101139.91;5064989;28;20085;-70
2022/01/13 10:58:29;;;;;;;0.40;0.40;;;;;;;7.24;86.54;101135.50;5047212;28;20021;-70
2022/01/13 11:00:56;;;;;;;37.95;5.57;;;;;;;7.23;86.79;101136.38;5065101;28;20109;-70
2022/01/13 11:03:24;;;;;;;41.65;6.50;;;;;;;7.25;86.89;101134.69;5064994;28;20032;-70
2022/01/13 11:05:55;;;;;;;32.42;6.28;;;;;;;7.23;86.82;101114.00;5065215;28;20028;-70
2022/01/13 11:08:33;;;;;;;29.73;6.03;;;;;;;7.28;86.76;101137.31;5064923;28;20033;-71
2022/01/13 11:11:01;;;;;;;30.25;5.60;;;;;;;7.09;87.11;101120.63;5064782;28;20025;-70
2022/01/13 11:13:30;;;;;;;37.58;8.20;;;;;;;7.26;87.04;101132.13;5064874;28;20025;-70
2022/01/13 11:15:56;;;;;;;25.98;5.88;;;;;;;7.17;87.45;101135.41;5064836;28;20081;-69
2022/01/13 11:18:25;;;;;;;30.80;4.68;;;;;;;7.08;87.66;101104.28;5064616;28;20024;-69
2022/01/13 11:20:51;;;;;;;40.85;6.50;;;;;;;7.05;87.70;101119.72;5064756;28;20032;-69
2022/01/13 11:23:18;;;;;;;26.95;6.40;;;;;;;7.16;87.07;101117.31;5064803;28;20025;-69
2022/01/13 11:25:45;;;;;;;29.40;4.13;;;;;;;7.11;87.14;101118.97;5064618;28;20484;-70
2022/01/13 11:28:12;;;;;;;30.70;6.20;;;;;;;7.06;87.48;101114.56;5063651;28;20021;-69
2022/01/13 11:30:39;;;;;;;41.83;5.90;;;;;;;7.10;87.27;101123.25;5044717;28;20017;-69
2022/01/13 11:33:04;;;;;;;40.25;6.95;;;;;;;7.02;87.63;101101.59;5062877;28;20025;-69
2022/01/13 11:35:35;;;;;;;25.88;4.93;;;;;;;7.09;87.65;101107.72;5064270;28;20025;-69
2022/01/13 11:38:04;;;;;;;23.35;5.13;;;;;;;7.05;87.46;101078.41;5064265;28;20021;-71
2022/01/13 11:40:32;;;;;;;26.23;3.72;;;;;;;7.02;87.46;101080.94;5064303;28;20032;-70
2022/01/13 11:42:59;;;;;;;28.88;4.93;;;;;;;6.90;87.50;101095.34;5064051;28;20044;-71
2022/01/13 11:45:26;;;;;;;21.08;4.25;;;;;;;6.94;87.29;101096.28;5064384;28;20050;-69
2022/01/13 11:48:23;;;;;;;25.92;4.65;;;;;;;6.90;87.47;101103.09;5064385;28;20025;-69
2022/01/13 11:50:54;;;;;;;24.40;4.45;;;;;;;6.74;87.61;101073.56;5046142;28;20020;-70
2022/01/13 11:53:27;;;;;;;18.85;3.58;;;;;;;6.76;87.61;101094.22;5064132;28;20084;-70
2022/01/13 11:56:06;;;;;;;33.50;5.72;;;;;;;6.81;87.82;101097.78;5063893;28;20492;-71
2022/01/13 11:58:43;;;;;;;28.48;3.95;;;;;;;6.56;87.86;101064.66;5064017;28;20029;-70
2022/01/13 12:01:22;;;;;;;16.25;4.53;;;;;;;6.69;88.03;101078.63;5045573;28;20024;-70